createdAt,value
2016-07-29T00:00:15.411Z,0
2016-07-29T00:01:14.526Z,0
2016-07-29T00:02:14.315Z,0
2016-07-29T00:03:15.995Z,0
2016-07-29T00:04:14.062Z,0
2016-07-29T00:05:13.325Z,0
2016-07-29T00:06:14.162Z,0
2016-07-29T00:07:14.431Z,0
2016-07-29T00:08:13.352Z,0
2016-07-29T00:09:13.313Z,0
2016-07-29T00:10:15.378Z,0
2016-07-29T00:11:14.458Z,0
2016-07-29T00:12:14.791Z,0
2016-07-29T00:13:13.267Z,0
2016-07-29T00:14:15.342Z,0
2016-07-29T00:15:13.699Z,0
2016-07-29T00:16:14.245Z,0
2016-07-29T00:17:16.341Z,0
2016-07-29T00:18:15.289Z,0
2016-07-29T00:19:14.701Z,0
2016-07-29T00:20:12.926Z,0
2016-07-29T00:21:14.070Z,0
2016-07-29T00:22:14.905Z,0
2016-07-29T00:23:16.339Z,0
2016-07-29T00:24:15.562Z,0
2016-07-29T00:25:13.406Z,0
2016-07-29T00:26:14.305Z,0
2016-07-29T00:27:13.417Z,0
2016-07-29T00:28:14.855Z,0
2016-07-29T00:29:13.702Z,0
2016-07-29T00:30:13.689Z,0
2016-07-29T00:31:13.640Z,0
2016-07-29T00:32:15.267Z,0
2016-07-29T00:33:14.611Z,0
2016-07-29T00:34:14.040Z,0
2016-07-29T00:35:15.541Z,0
2016-07-29T00:36:15.902Z,0
2016-07-29T00:37:15.199Z,0
2016-07-29T00:38:15.234Z,0
2016-07-29T00:39:14.942Z,0
2016-07-29T00:40:14.455Z,0
2016-07-29T00:41:15.331Z,0
2016-07-29T00:42:14.142Z,0
2016-07-29T00:43:13.166Z,0
2016-07-29T00:44:15.284Z,0
2016-07-29T00:45:15.231Z,0
2016-07-29T00:46:14.505Z,0
2016-07-29T00:47:14.274Z,0
2016-07-29T00:48:15.677Z,0
2016-07-29T00:49:14.117Z,0
2016-07-29T00:50:14.529Z,0
2016-07-29T00:51:14.100Z,0
2016-07-29T00:52:16.114Z,0
2016-07-29T00:53:16.018Z,0
2016-07-29T00:54:14.806Z,0
2016-07-29T00:55:16.006Z,0
2016-07-29T00:56:15.420Z,0
2016-07-29T00:57:15.144Z,0
2016-07-29T00:58:15.284Z,0
2016-07-29T00:59:15.389Z,0
2016-07-29T01:00:14.974Z,0
2016-07-29T01:01:16.189Z,0
2016-07-29T01:02:14.449Z,0
2016-07-29T01:03:15.737Z,0
2016-07-29T01:04:15.274Z,0
2016-07-29T01:05:14.323Z,0
2016-07-29T01:06:14.440Z,0
2016-07-29T01:07:16.268Z,0
2016-07-29T01:08:15.420Z,0
2016-07-29T01:09:14.211Z,0
2016-07-29T01:10:16.581Z,0
2016-07-29T01:11:15.841Z,0
2016-07-29T01:12:14.974Z,0
2016-07-29T01:13:15.351Z,0
2016-07-29T01:14:16.737Z,0
2016-07-29T01:15:15.807Z,0
2016-07-29T01:16:16.441Z,0
2016-07-29T01:17:15.909Z,0
2016-07-29T01:18:17.113Z,0
2016-07-29T01:19:15.815Z,0
2016-07-29T01:20:15.484Z,0
2016-07-29T01:21:15.505Z,0
2016-07-29T01:22:14.437Z,0
2016-07-29T01:23:15.682Z,0
2016-07-29T01:24:15.366Z,0
2016-07-29T01:25:15.351Z,0
2016-07-29T01:26:15.370Z,0
2016-07-29T01:27:15.009Z,0
2016-07-29T01:28:17.695Z,0
2016-07-29T01:29:18.161Z,0
2016-07-29T01:30:15.273Z,0
2016-07-29T01:31:16.025Z,0
2016-07-29T01:33:16.346Z,0
2016-07-29T01:34:15.473Z,0
2016-07-29T01:35:17.877Z,0
2016-07-29T01:36:14.678Z,0
2016-07-29T01:37:14.561Z,0
2016-07-29T01:38:16.976Z,0
2016-07-29T01:39:15.943Z,0
2016-07-29T01:40:15.211Z,0
2016-07-29T01:41:15.650Z,0
2016-07-29T01:42:15.518Z,0
2016-07-29T01:43:15.246Z,0
2016-07-29T01:44:18.525Z,0
2016-07-29T01:45:18.131Z,0
2016-07-29T01:46:17.095Z,0
2016-07-29T01:48:15.913Z,0
2016-07-29T01:49:18.249Z,0
2016-07-29T01:50:15.101Z,0
2016-07-29T01:51:17.807Z,0
2016-07-29T01:52:16.086Z,0
2016-07-29T01:53:17.289Z,0
2016-07-29T01:54:16.439Z,0
2016-07-29T01:55:17.938Z,0
2016-07-29T01:56:16.630Z,0
2016-07-29T01:57:16.222Z,0
2016-07-29T01:58:16.633Z,0
2016-07-29T01:59:15.494Z,0
2016-07-29T02:00:16.052Z,0
2016-07-29T02:01:18.198Z,0
2016-07-29T02:03:16.615Z,0
2016-07-29T02:04:15.902Z,0
2016-07-29T02:05:16.724Z,0
2016-07-29T02:06:17.545Z,0
2016-07-29T02:07:15.871Z,0
2016-07-29T02:08:17.022Z,0
2016-07-29T02:09:15.972Z,0
2016-07-29T02:10:16.681Z,0
2016-07-29T02:11:18.467Z,0
2016-07-29T02:12:16.614Z,0
2016-07-29T02:13:20.028Z,0
2016-07-29T02:14:17.838Z,0
2016-07-29T02:15:15.935Z,0
2016-07-29T02:16:18.398Z,0
2016-07-29T02:17:17.683Z,0
2016-07-29T02:18:18.311Z,0
2016-07-29T02:19:17.341Z,0
2016-07-29T02:20:18.353Z,0
2016-07-29T02:21:18.184Z,0
2016-07-29T02:22:18.374Z,0
2016-07-29T02:23:16.160Z,0
2016-07-29T02:24:18.543Z,0
2016-07-29T02:25:18.506Z,0
2016-07-29T02:26:17.018Z,0
2016-07-29T02:27:16.654Z,0
2016-07-29T02:28:19.047Z,0
2016-07-29T02:29:18.143Z,0
2016-07-29T02:30:16.306Z,0
2016-07-29T02:31:16.302Z,0
2016-07-29T02:32:17.469Z,0
2016-07-29T02:33:18.200Z,0
2016-07-29T02:34:17.114Z,0
2016-07-29T02:35:17.439Z,0
2016-07-29T02:36:18.424Z,0
2016-07-29T02:37:16.903Z,0
2016-07-29T02:38:16.589Z,0
2016-07-29T02:39:16.571Z,0
2016-07-29T02:40:18.402Z,0
2016-07-29T02:41:17.089Z,0
2016-07-29T02:42:16.284Z,0
2016-07-29T02:43:18.078Z,0
2016-07-29T02:44:16.586Z,0
2016-07-29T02:45:16.283Z,0
2016-07-29T02:46:17.893Z,0
2016-07-29T02:47:17.122Z,0
2016-07-29T02:48:19.065Z,0
2016-07-29T02:49:20.102Z,0
2016-07-29T02:50:19.617Z,0
2016-07-29T02:51:19.065Z,0
2016-07-29T02:52:18.270Z,0
2016-07-29T02:53:17.113Z,0
2016-07-29T02:54:20.047Z,0
2016-07-29T02:55:16.967Z,0
2016-07-29T02:56:19.244Z,0
2016-07-29T02:57:18.255Z,0
2016-07-29T02:58:18.562Z,0
2016-07-29T02:59:18.605Z,0
2016-07-29T03:00:18.240Z,0
2016-07-29T03:01:19.610Z,0
2016-07-29T03:02:18.806Z,0
2016-07-29T03:03:18.161Z,0
2016-07-29T03:04:18.915Z,0
2016-07-29T03:05:18.517Z,0
2016-07-29T03:06:19.132Z,0
2016-07-29T03:07:18.903Z,0
2016-07-29T03:08:20.272Z,0
2016-07-29T03:09:17.045Z,0
2016-07-29T03:10:18.285Z,0
2016-07-29T03:11:19.929Z,0
2016-07-29T03:12:17.244Z,0
2016-07-29T03:13:19.186Z,0
2016-07-29T03:14:20.063Z,0
2016-07-29T03:15:18.042Z,0
2016-07-29T03:16:18.838Z,0
2016-07-29T03:17:17.420Z,0
2016-07-29T03:18:19.596Z,0
2016-07-29T03:19:17.599Z,0
2016-07-29T03:20:19.340Z,0
2016-07-29T03:21:19.500Z,0
2016-07-29T03:22:19.256Z,0
2016-07-29T03:23:18.192Z,0
2016-07-29T03:24:20.271Z,0
2016-07-29T03:25:18.765Z,0
2016-07-29T03:26:18.215Z,0
2016-07-29T03:27:18.303Z,0
2016-07-29T03:28:19.179Z,5
2016-07-29T03:29:18.710Z,5
2016-07-29T03:30:20.103Z,5
2016-07-29T03:31:18.357Z,5
2016-07-29T03:32:20.653Z,5
2016-07-29T03:33:20.395Z,5
2016-07-29T03:34:18.554Z,5
2016-07-29T03:35:20.262Z,5
2016-07-29T03:36:20.188Z,5
2016-07-29T03:37:19.850Z,10
2016-07-29T03:38:20.052Z,10
2016-07-29T03:39:20.998Z,10
2016-07-29T03:40:21.107Z,10
2016-07-29T03:41:18.315Z,10
2016-07-29T03:42:18.936Z,15
2016-07-29T03:43:19.605Z,15
2016-07-29T03:44:19.518Z,20
2016-07-29T03:45:18.363Z,20
2016-07-29T03:46:20.082Z,25
2016-07-29T03:47:19.353Z,25
2016-07-29T03:48:18.287Z,25
2016-07-29T03:49:18.604Z,30
2016-07-29T03:50:18.156Z,30
2016-07-29T03:51:20.600Z,35
2016-07-29T03:52:18.324Z,35
2016-07-29T03:53:20.890Z,40
2016-07-29T03:54:19.949Z,45
2016-07-29T03:55:18.344Z,50
2016-07-29T03:56:20.449Z,50
2016-07-29T03:57:19.611Z,55
2016-07-29T03:58:19.703Z,60
2016-07-29T03:59:19.154Z,70
2016-07-29T04:00:18.984Z,75
2016-07-29T04:01:19.842Z,75
2016-07-29T04:02:19.121Z,85
2016-07-29T04:03:18.880Z,85
2016-07-29T04:04:19.820Z,90
2016-07-29T04:05:18.963Z,90
2016-07-29T04:06:18.409Z,90
2016-07-29T04:07:19.650Z,90
2016-07-29T04:08:20.149Z,95
2016-07-29T04:09:20.816Z,105
2016-07-29T04:10:19.700Z,110
2016-07-29T04:11:19.710Z,105
2016-07-29T04:12:19.797Z,100
2016-07-29T04:13:22.190Z,95
2016-07-29T04:14:19.714Z,85
2016-07-29T04:15:21.254Z,75
2016-07-29T04:16:20.885Z,70
2016-07-29T04:17:19.851Z,65
2016-07-29T04:18:19.105Z,55
2016-07-29T04:19:20.183Z,45
2016-07-29T04:20:19.570Z,45
2016-07-29T04:21:19.637Z,40
2016-07-29T04:22:21.738Z,40
2016-07-29T04:23:19.703Z,40
2016-07-29T04:24:18.763Z,35
2016-07-29T04:25:19.231Z,35
2016-07-29T04:26:20.916Z,35
2016-07-29T04:27:20.561Z,35
2016-07-29T04:28:19.339Z,35
2016-07-29T04:29:20.631Z,35
2016-07-29T04:30:19.216Z,30
2016-07-29T04:31:20.040Z,30
2016-07-29T04:32:19.576Z,30
2016-07-29T04:33:21.558Z,30
2016-07-29T04:34:22.253Z,35
2016-07-29T04:35:19.239Z,35
2016-07-29T04:36:22.446Z,40
2016-07-29T04:37:20.565Z,40
2016-07-29T04:38:19.651Z,45
2016-07-29T04:39:19.828Z,50
2016-07-29T04:40:19.937Z,50
2016-07-29T04:41:20.699Z,55
2016-07-29T04:42:20.264Z,55
2016-07-29T04:43:22.040Z,60
2016-07-29T04:44:20.836Z,65
2016-07-29T04:45:20.548Z,70
2016-07-29T04:46:21.944Z,75
2016-07-29T04:47:20.530Z,80
2016-07-29T04:48:21.986Z,90
2016-07-29T04:49:22.391Z,100
2016-07-29T04:50:21.523Z,105
2016-07-29T04:51:21.401Z,115
2016-07-29T04:52:20.755Z,130
2016-07-29T04:53:21.814Z,140
2016-07-29T04:54:19.640Z,150
2016-07-29T04:55:19.812Z,170
2016-07-29T04:56:20.894Z,185
2016-07-29T04:57:21.744Z,200
2016-07-29T04:58:21.320Z,205
2016-07-29T04:59:20.820Z,210
2016-07-29T05:00:22.142Z,215
2016-07-29T05:01:20.722Z,215
2016-07-29T05:02:21.158Z,220
2016-07-29T05:03:19.615Z,220
2016-07-29T05:04:21.137Z,215
2016-07-29T05:05:21.034Z,205
2016-07-29T05:06:21.730Z,185
2016-07-29T05:07:20.371Z,170
2016-07-29T05:08:21.463Z,160
2016-07-29T05:09:21.105Z,160
2016-07-29T05:10:21.666Z,160
2016-07-29T05:11:20.454Z,165
2016-07-29T05:12:21.755Z,165
2016-07-29T05:13:21.648Z,160
2016-07-29T05:14:21.076Z,160
2016-07-29T05:15:21.196Z,160
2016-07-29T05:16:22.561Z,170
2016-07-29T05:17:20.705Z,185
2016-07-29T05:19:21.972Z,220
2016-07-29T05:20:21.761Z,220
2016-07-29T05:21:22.388Z,210
2016-07-29T05:22:21.692Z,190
2016-07-29T05:23:21.100Z,175
2016-07-29T05:24:21.369Z,165
2016-07-29T05:25:21.596Z,155
2016-07-29T05:26:24.105Z,150
2016-07-29T05:27:21.547Z,150
2016-07-29T05:28:21.508Z,155
2016-07-29T05:29:23.813Z,160
2016-07-29T05:30:22.108Z,160
2016-07-29T05:31:21.436Z,165
2016-07-29T05:32:20.988Z,160
2016-07-29T05:33:21.754Z,155
2016-07-29T05:34:23.174Z,150
2016-07-29T05:35:22.875Z,150
2016-07-29T05:36:24.435Z,140
2016-07-29T05:37:22.201Z,140
2016-07-29T05:38:23.401Z,145
2016-07-29T05:39:22.427Z,155
2016-07-29T05:40:23.329Z,160
2016-07-29T05:41:20.598Z,165
2016-07-29T05:42:21.417Z,170
2016-07-29T05:43:22.437Z,170
2016-07-29T05:44:21.749Z,165
2016-07-29T05:45:24.160Z,160
2016-07-29T05:46:23.826Z,170
2016-07-29T05:47:25.705Z,185
2016-07-29T05:48:26.146Z,200
2016-07-29T05:49:23.851Z,205
2016-07-29T05:50:26.918Z,200
2016-07-29T05:51:23.238Z,180
2016-07-29T05:52:25.212Z,165
2016-07-29T05:53:25.331Z,155
2016-07-29T05:54:24.946Z,165
2016-07-29T05:55:27.446Z,205
2016-07-29T05:56:22.761Z,235
2016-07-29T05:57:23.756Z,250
2016-07-29T05:58:23.254Z,255
2016-07-29T05:59:23.613Z,245
2016-07-29T06:00:25.309Z,225
2016-07-29T06:01:24.101Z,210
2016-07-29T06:02:25.277Z,200
2016-07-29T06:04:23.797Z,205
2016-07-29T06:05:24.364Z,210
2016-07-29T06:06:23.054Z,210
2016-07-29T06:07:26.166Z,220
2016-07-29T06:08:24.000Z,235
2016-07-29T06:09:21.864Z,255
2016-07-29T06:10:23.089Z,265
2016-07-29T06:11:23.517Z,270
2016-07-29T06:12:22.097Z,275
2016-07-29T06:13:24.381Z,295
2016-07-29T06:14:22.398Z,295
2016-07-29T06:15:24.538Z,295
2016-07-29T06:16:24.764Z,280
2016-07-29T06:17:22.840Z,260
2016-07-29T06:18:23.159Z,240
2016-07-29T06:19:22.623Z,225
2016-07-29T06:20:22.536Z,210
2016-07-29T06:21:25.315Z,210
2016-07-29T06:22:23.460Z,235
2016-07-29T06:23:23.397Z,265
2016-07-29T06:24:23.126Z,280
2016-07-29T06:25:23.543Z,280
2016-07-29T06:26:23.189Z,295
2016-07-29T06:27:23.684Z,330
2016-07-29T06:28:23.624Z,395
2016-07-29T06:29:22.784Z,420
2016-07-29T06:30:22.321Z,395
2016-07-29T06:31:22.794Z,370
2016-07-29T06:32:24.185Z,365
2016-07-29T06:33:22.231Z,390
2016-07-29T06:34:24.214Z,405
2016-07-29T06:35:23.591Z,420
2016-07-29T06:36:23.056Z,465
2016-07-29T06:37:24.004Z,515
2016-07-29T06:38:22.799Z,580
2016-07-29T06:39:22.437Z,640
2016-07-29T06:40:22.192Z,650
2016-07-29T06:41:22.437Z,630
2016-07-29T06:42:22.945Z,630
2016-07-29T06:43:23.315Z,625
2016-07-29T06:44:22.637Z,570
2016-07-29T06:45:23.190Z,500
2016-07-29T06:46:23.275Z,475
2016-07-29T06:47:22.671Z,475
2016-07-29T06:50:23.082Z,490
2016-07-29T06:51:22.497Z,515
2016-07-29T06:52:23.543Z,545
2016-07-29T06:53:25.099Z,575
2016-07-29T06:54:23.919Z,605
2016-07-29T06:55:24.850Z,630
2016-07-29T06:56:24.217Z,635
2016-07-29T06:57:24.053Z,635
2016-07-29T06:58:24.368Z,640
2016-07-29T06:59:23.366Z,655
2016-07-29T07:00:23.623Z,635
2016-07-29T07:01:23.340Z,625
2016-07-29T07:02:25.080Z,620
2016-07-29T07:04:25.582Z,605
2016-07-29T07:05:22.983Z,610
2016-07-29T07:06:24.138Z,565
2016-07-29T07:07:25.094Z,495
2016-07-29T07:08:24.572Z,450
2016-07-29T07:09:24.908Z,430
2016-07-29T07:10:25.119Z,440
2016-07-29T07:11:25.626Z,475
2016-07-29T07:12:24.062Z,535
2016-07-29T07:13:25.722Z,620
2016-07-29T07:14:24.474Z,715
2016-07-29T07:15:25.938Z,760
2016-07-29T07:16:24.871Z,725
2016-07-29T07:17:25.831Z,665
2016-07-29T07:19:23.680Z,610
2016-07-29T07:20:25.348Z,575
2016-07-29T07:21:26.160Z,535
2016-07-29T07:22:24.075Z,505
2016-07-29T07:23:24.760Z,520
2016-07-29T07:24:23.580Z,570
2016-07-29T07:25:23.706Z,645
2016-07-29T07:26:23.560Z,705
2016-07-29T07:27:24.233Z,715
2016-07-29T07:28:23.814Z,720
2016-07-29T07:29:23.099Z,765
2016-07-29T07:30:24.678Z,850
2016-07-29T07:31:24.290Z,925
2016-07-29T07:32:24.811Z,990
2016-07-29T07:34:26.327Z,1085
2016-07-29T07:35:26.682Z,1135
2016-07-29T07:36:24.807Z,1115
2016-07-29T07:37:23.768Z,1085
2016-07-29T07:38:23.530Z,1160
2016-07-29T07:39:26.396Z,1305
2016-07-29T07:40:25.928Z,1485
2016-07-29T07:41:28.352Z,1505
2016-07-29T07:42:24.047Z,1465
2016-07-29T07:43:25.178Z,1355
2016-07-29T07:44:26.926Z,1150
2016-07-29T07:45:26.930Z,1080
2016-07-29T07:46:25.342Z,1080
2016-07-29T07:47:24.230Z,1125
2016-07-29T07:49:23.715Z,1170
2016-07-29T07:50:25.626Z,1105
2016-07-29T07:51:25.088Z,1090
2016-07-29T07:52:25.666Z,1120
2016-07-29T07:53:25.051Z,1155
2016-07-29T07:54:25.116Z,1230
2016-07-29T07:55:23.373Z,1100
2016-07-29T07:56:25.272Z,1200
2016-07-29T07:57:24.774Z,1500
2016-07-29T07:58:25.216Z,1360
2016-07-29T07:59:24.785Z,1335
2016-07-29T08:00:25.142Z,1460
2016-07-29T08:01:26.179Z,1165
2016-07-29T08:02:25.967Z,1185
2016-07-29T08:03:26.486Z,1305
2016-07-29T08:04:26.404Z,1605
2016-07-29T08:05:26.175Z,1770
2016-07-29T08:06:25.920Z,1995
2016-07-29T08:07:27.814Z,2165
2016-07-29T08:08:25.406Z,1780
2016-07-29T08:09:25.482Z,1340
2016-07-29T08:10:26.928Z,1280
2016-07-29T08:11:27.508Z,1230
2016-07-29T08:12:26.878Z,1270
2016-07-29T08:13:25.673Z,1755
2016-07-29T08:14:27.068Z,2785
2016-07-29T08:15:25.728Z,1755
2016-07-29T08:16:26.064Z,3500
2016-07-29T08:17:27.764Z,2655
2016-07-29T08:18:27.493Z,3135
2016-07-29T08:19:26.943Z,3085
2016-07-29T08:20:27.528Z,3275
2016-07-29T08:21:25.967Z,2645
2016-07-29T08:22:28.760Z,2875
2016-07-29T08:23:25.777Z,1400
2016-07-29T08:24:26.626Z,945
2016-07-29T08:25:27.001Z,790
2016-07-29T08:26:26.549Z,715
2016-07-29T08:27:25.256Z,735
2016-07-29T08:28:26.521Z,755
2016-07-29T08:29:26.622Z,705
2016-07-29T08:30:25.626Z,665
2016-07-29T08:31:25.848Z,665
2016-07-29T08:32:27.861Z,845
2016-07-29T08:33:26.667Z,1225
2016-07-29T08:34:26.446Z,1150
2016-07-29T08:35:25.687Z,1330
2016-07-29T08:36:25.936Z,2035
2016-07-29T08:37:28.447Z,3785
2016-07-29T08:38:26.357Z,2845
2016-07-29T08:39:27.152Z,1365
2016-07-29T08:40:26.003Z,1350
2016-07-29T08:41:26.740Z,1360
2016-07-29T08:42:26.856Z,1485
2016-07-29T08:43:26.444Z,1390
2016-07-29T08:44:29.086Z,1835
2016-07-29T08:45:28.059Z,1475
2016-07-29T08:46:27.701Z,1430
2016-07-29T08:47:28.135Z,1405
2016-07-29T08:48:27.040Z,1480
2016-07-29T08:49:27.463Z,1420
2016-07-29T08:50:27.002Z,1410
2016-07-29T08:51:27.502Z,1520
2016-07-29T08:52:28.095Z,1450
2016-07-29T08:53:29.271Z,1270
2016-07-29T08:54:27.945Z,1225
2016-07-29T08:55:26.666Z,1190
2016-07-29T08:56:28.245Z,1080
2016-07-29T08:57:26.743Z,1050
2016-07-29T08:58:28.272Z,1045
2016-07-29T08:59:27.855Z,1025
2016-07-29T09:00:28.525Z,980
2016-07-29T09:01:27.960Z,965
2016-07-29T09:02:28.211Z,1065
2016-07-29T09:03:27.854Z,1560
2016-07-29T09:04:27.712Z,2180
2016-07-29T09:05:28.904Z,2880
2016-07-29T09:06:28.349Z,3095
2016-07-29T09:07:29.153Z,2865
2016-07-29T09:08:27.646Z,2715
2016-07-29T09:09:27.161Z,3040
2016-07-29T09:10:29.133Z,3070
2016-07-29T09:11:27.763Z,3255
2016-07-29T09:12:28.477Z,3010
2016-07-29T09:13:26.581Z,3060
2016-07-29T09:14:28.080Z,3120
2016-07-29T09:15:29.661Z,3145
2016-07-29T09:16:28.593Z,3510
2016-07-29T09:17:28.853Z,2095
2016-07-29T09:18:29.316Z,2130
2016-07-29T09:19:28.586Z,1840
2016-07-29T09:20:27.771Z,1895
2016-07-29T09:21:27.569Z,2250
2016-07-29T09:22:29.408Z,3005
2016-07-29T09:23:29.986Z,2430
2016-07-29T09:24:30.882Z,2130
2016-07-29T09:25:29.249Z,1990
2016-07-29T09:26:29.366Z,1780
2016-07-29T09:27:29.357Z,1685
2016-07-29T09:28:27.471Z,1685
2016-07-29T09:29:28.166Z,1745
2016-07-29T09:30:28.260Z,1980
2016-07-29T09:31:28.637Z,2125
2016-07-29T09:32:28.739Z,2140
2016-07-29T09:33:29.944Z,1845
2016-07-29T09:34:29.303Z,1500
2016-07-29T09:35:27.880Z,1255
2016-07-29T09:36:29.220Z,1120
2016-07-29T09:37:28.238Z,1055
2016-07-29T09:38:29.187Z,1000
2016-07-29T09:39:29.297Z,915
2016-07-29T09:40:28.892Z,850
2016-07-29T09:41:29.907Z,810
2016-07-29T09:42:28.787Z,820
2016-07-29T09:43:30.738Z,895
2016-07-29T09:44:29.954Z,905
2016-07-29T09:45:29.218Z,965
2016-07-29T09:46:28.161Z,1010
2016-07-29T09:47:28.515Z,990
2016-07-29T09:48:28.921Z,850
2016-07-29T09:49:29.275Z,810
2016-07-29T09:50:30.088Z,925
2016-07-29T09:51:30.116Z,1075
2016-07-29T09:52:29.243Z,1190
2016-07-29T09:53:29.266Z,1235
2016-07-29T09:54:29.475Z,1225
2016-07-29T09:55:32.024Z,1155
2016-07-29T09:56:28.637Z,1045
2016-07-29T09:57:31.191Z,870
2016-07-29T09:58:30.671Z,730
2016-07-29T09:59:29.571Z,640
2016-07-29T10:00:28.935Z,575
2016-07-29T10:01:31.457Z,575
2016-07-29T10:02:30.195Z,675
2016-07-29T10:03:29.543Z,850
2016-07-29T10:04:30.342Z,1100
2016-07-29T10:05:30.331Z,1325
2016-07-29T10:06:30.337Z,1810
2016-07-29T10:07:29.709Z,3570
2016-07-29T10:08:28.734Z,1920
2016-07-29T10:09:29.589Z,3695
2016-07-29T10:10:30.463Z,3135
2016-07-29T10:11:29.590Z,2120
2016-07-29T10:12:29.183Z,3140
2016-07-29T10:13:30.616Z,1670
2016-07-29T10:14:30.198Z,1630
2016-07-29T10:15:28.635Z,2060
2016-07-29T10:16:29.702Z,1715
2016-07-29T10:17:29.710Z,1620
2016-07-29T10:18:30.257Z,1620
2016-07-29T10:19:30.837Z,1605
2016-07-29T10:20:32.711Z,1655
2016-07-29T10:21:30.411Z,1625
2016-07-29T10:22:29.794Z,1890
2016-07-29T10:23:29.289Z,1485
2016-07-29T10:24:29.942Z,1410
2016-07-29T10:25:29.722Z,1435
2016-07-29T10:26:30.862Z,1615
2016-07-29T10:27:30.348Z,1695
2016-07-29T10:28:31.143Z,1690
2016-07-29T10:29:30.399Z,1640
2016-07-29T10:30:29.465Z,1810
2016-07-29T10:31:29.599Z,1820
2016-07-29T10:32:32.354Z,3180
2016-07-29T10:33:30.570Z,1780
2016-07-29T10:34:30.826Z,1695
2016-07-29T10:35:30.015Z,1460
2016-07-29T10:36:30.815Z,1220
2016-07-29T10:37:30.659Z,1060
2016-07-29T10:38:31.538Z,925
2016-07-29T10:39:31.149Z,830
2016-07-29T10:40:30.339Z,765
2016-07-29T10:41:31.179Z,720
2016-07-29T10:42:30.929Z,700
2016-07-29T10:43:29.862Z,725
2016-07-29T10:44:32.816Z,765
2016-07-29T10:45:30.622Z,755
2016-07-29T10:46:31.542Z,720
2016-07-29T10:47:30.518Z,675
2016-07-29T10:48:30.389Z,565
2016-07-29T10:49:30.155Z,475
2016-07-29T10:50:31.643Z,450
2016-07-29T10:51:30.727Z,490
2016-07-29T10:52:32.099Z,570
2016-07-29T10:53:30.840Z,605
2016-07-29T10:54:32.069Z,585
2016-07-29T10:55:31.063Z,545
2016-07-29T10:56:31.576Z,545
2016-07-29T10:57:31.453Z,565
2016-07-29T10:58:31.362Z,580
2016-07-29T10:59:30.538Z,575
2016-07-29T11:00:32.751Z,600
2016-07-29T11:01:30.047Z,685
2016-07-29T11:02:30.762Z,765
2016-07-29T11:03:31.497Z,755
2016-07-29T11:04:30.981Z,650
2016-07-29T11:05:31.155Z,535
2016-07-29T11:06:31.735Z,455
2016-07-29T11:07:32.477Z,420
2016-07-29T11:08:32.304Z,375
2016-07-29T11:09:32.604Z,355
2016-07-29T11:10:32.454Z,370
2016-07-29T11:11:32.571Z,405
2016-07-29T11:12:32.498Z,435
2016-07-29T11:13:33.388Z,470
2016-07-29T11:14:31.498Z,490
2016-07-29T11:15:31.427Z,560
2016-07-29T11:16:30.838Z,655
2016-07-29T11:17:32.955Z,755
2016-07-29T11:18:32.277Z,870
2016-07-29T11:19:31.447Z,1000
2016-07-29T11:20:32.957Z,1125
2016-07-29T11:21:31.397Z,1165
2016-07-29T11:22:32.585Z,1185
2016-07-29T11:23:31.753Z,1220
2016-07-29T11:24:33.347Z,1315
2016-07-29T11:25:31.659Z,1425
2016-07-29T11:26:32.676Z,1560
2016-07-29T11:27:33.093Z,1665
2016-07-29T11:28:32.289Z,1835
2016-07-29T11:29:31.162Z,2070
2016-07-29T11:30:32.120Z,2645
2016-07-29T11:31:32.061Z,2535
2016-07-29T11:32:33.974Z,2375
2016-07-29T11:33:32.356Z,2195
2016-07-29T11:34:32.684Z,2185
2016-07-29T11:35:32.544Z,1990
2016-07-29T11:36:32.634Z,1940
2016-07-29T11:37:31.846Z,1885
2016-07-29T11:38:33.795Z,1840
2016-07-29T11:39:34.254Z,1815
2016-07-29T11:40:33.112Z,1775
2016-07-29T11:41:32.979Z,1745
2016-07-29T11:42:32.652Z,1755
2016-07-29T11:43:32.822Z,1795
2016-07-29T11:44:32.508Z,1850
2016-07-29T11:45:31.666Z,1855
2016-07-29T11:46:34.215Z,1805
2016-07-29T11:47:33.120Z,1790
2016-07-29T11:48:34.624Z,1825
2016-07-29T11:49:33.553Z,1880
2016-07-29T11:50:33.466Z,2035
2016-07-29T11:51:33.204Z,2230
2016-07-29T11:52:33.275Z,2520
2016-07-29T11:53:34.144Z,2255
2016-07-29T11:54:33.659Z,2135
2016-07-29T11:55:32.842Z,1920
2016-07-29T11:56:32.910Z,1985
2016-07-29T11:57:32.561Z,3020
2016-07-29T11:58:32.975Z,1960
2016-07-29T11:59:33.625Z,2635
2016-07-29T12:00:34.762Z,1830
2016-07-29T12:01:33.119Z,1650
2016-07-29T12:02:33.095Z,1780
2016-07-29T12:03:34.952Z,1625
2016-07-29T12:04:32.977Z,1720
2016-07-29T12:05:33.336Z,2200
2016-07-29T12:06:34.670Z,2285
2016-07-29T12:07:33.982Z,2340
2016-07-29T12:08:33.339Z,2030
2016-07-29T12:09:33.640Z,2185
2016-07-29T12:10:34.542Z,1955
2016-07-29T12:11:34.116Z,1950
2016-07-29T12:12:32.905Z,1930
2016-07-29T12:13:34.637Z,1965
2016-07-29T12:14:34.979Z,2385
2016-07-29T12:15:34.468Z,2240
2016-07-29T12:16:34.646Z,2385
2016-07-29T12:17:34.245Z,2060
2016-07-29T12:18:35.091Z,1965
2016-07-29T12:19:33.629Z,1925
2016-07-29T12:20:34.149Z,1955
2016-07-29T12:21:34.299Z,2005
2016-07-29T12:22:33.378Z,2100
2016-07-29T12:23:34.192Z,2140
2016-07-29T12:24:35.114Z,2125
2016-07-29T12:25:33.823Z,2060
2016-07-29T12:26:35.038Z,2245
2016-07-29T12:27:35.217Z,2355
2016-07-29T12:28:33.131Z,2085
2016-07-29T12:29:33.585Z,2035
2016-07-29T12:30:35.829Z,2070
2016-07-29T12:31:34.686Z,1985
2016-07-29T12:32:33.832Z,2435
2016-07-29T12:33:36.014Z,2710
2016-07-29T12:34:34.432Z,3155
2016-07-29T12:35:35.024Z,2955
2016-07-29T12:36:35.329Z,2105
2016-07-29T12:37:35.153Z,2535
2016-07-29T12:38:35.974Z,2500
2016-07-29T12:39:34.241Z,2760
2016-07-29T12:40:35.023Z,2430
2016-07-29T12:41:35.287Z,2035
2016-07-29T12:42:35.625Z,1740
2016-07-29T12:43:35.163Z,1970
2016-07-29T12:44:36.013Z,2070
2016-07-29T12:45:34.709Z,1830
2016-07-29T12:46:33.760Z,1745
2016-07-29T12:47:36.147Z,1800
2016-07-29T12:48:36.525Z,1885
2016-07-29T12:50:35.341Z,1845
2016-07-29T12:51:35.267Z,1350
2016-07-29T12:52:36.718Z,1210
2016-07-29T12:53:35.889Z,970
2016-07-29T12:54:35.265Z,800
2016-07-29T12:55:35.801Z,640
2016-07-29T12:56:35.116Z,520
2016-07-29T12:57:35.769Z,440
2016-07-29T12:58:35.987Z,390
2016-07-29T12:59:35.036Z,355
2016-07-29T13:00:34.722Z,330
2016-07-29T13:01:34.950Z,300
2016-07-29T13:02:36.210Z,270
2016-07-29T13:03:36.492Z,265
2016-07-29T13:05:35.772Z,355
2016-07-29T13:06:34.683Z,465
2016-07-29T13:07:35.334Z,645
2016-07-29T13:08:35.349Z,855
2016-07-29T13:09:36.623Z,1035
2016-07-29T13:10:36.630Z,1325
2016-07-29T13:11:37.660Z,2105
2016-07-29T13:12:36.168Z,1630
2016-07-29T13:13:35.686Z,1440
2016-07-29T13:14:34.963Z,1315
2016-07-29T13:15:36.636Z,1280
2016-07-29T13:16:35.849Z,1280
2016-07-29T13:17:35.311Z,1260
2016-07-29T13:18:37.359Z,1190
2016-07-29T13:20:37.005Z,2255
2016-07-29T13:21:37.586Z,2645
2016-07-29T13:22:36.180Z,3045
2016-07-29T13:23:36.150Z,3440
2016-07-29T13:24:35.297Z,3745
2016-07-29T13:25:36.199Z,3290
2016-07-29T13:26:35.674Z,3280
2016-07-29T13:27:36.914Z,3275
2016-07-29T13:28:35.814Z,3175
2016-07-29T13:29:37.071Z,2770
2016-07-29T13:30:36.874Z,1900
2016-07-29T13:31:38.326Z,1965
2016-07-29T13:32:36.545Z,1560
2016-07-29T13:33:36.500Z,1625
2016-07-29T13:34:36.210Z,2930
2016-07-29T13:35:38.267Z,1425
2016-07-29T13:36:38.592Z,1315
2016-07-29T13:37:37.860Z,1345
2016-07-29T13:38:38.369Z,1275
2016-07-29T13:39:38.054Z,1180
2016-07-29T13:40:36.764Z,1095
2016-07-29T13:41:37.101Z,1020
2016-07-29T13:42:36.305Z,940
2016-07-29T13:43:36.903Z,900
2016-07-29T13:44:36.629Z,875
2016-07-29T13:45:36.780Z,790
2016-07-29T13:46:36.616Z,740
2016-07-29T13:47:37.154Z,715
2016-07-29T13:48:38.444Z,690
2016-07-29T13:49:36.732Z,730
2016-07-29T13:50:36.182Z,820
2016-07-29T13:51:36.888Z,940
2016-07-29T13:52:36.347Z,1010
2016-07-29T13:53:37.042Z,1035
2016-07-29T13:54:36.748Z,2885
2016-07-29T13:55:36.998Z,3555
2016-07-29T13:56:37.586Z,1540
2016-07-29T13:57:37.837Z,3620
2016-07-29T13:58:39.011Z,1620
2016-07-29T13:59:38.949Z,1095
2016-07-29T14:00:38.976Z,1155
2016-07-29T14:01:37.974Z,1080
2016-07-29T14:02:37.103Z,960
2016-07-29T14:03:39.993Z,915
2016-07-29T14:04:37.389Z,880
2016-07-29T14:05:38.843Z,820
2016-07-29T14:06:38.911Z,810
2016-07-29T14:07:38.845Z,820